KDPA/DPA METAR and TAF weather

Enter ICAO airport designator
Station Type Date Time Source
KDPA METAR 2021/10/22 18:52 UTC NOAA

KDPA 221852Z 30007KT 10SM OVC050 12/01 A3002 RMK AO2 SLP166 T01170011


Station Type Date Time Source
KDPA Decoded METAR 2021/10/22 18:52 UTC NOAA

CHICAGO/WEST CH DUPAGE, IL, United States (KDPA) 41-54N 88-15W 230M
Oct 22, 2021 - 02:52 PM EDT / 2021.10.22 1852 UTC
Wind: from the WNW (300 degrees) at 8 MPH (7 KT):0
Visibility: 10 mile(s):0
Sky conditions: overcast
Temperature: 53.1 F (11.7 C)
Dew Point: 34.0 F (1.1 C)
Relative Humidity: 48%
Pressure (altimeter): 30.02 in. Hg (1016 hPa)
ob: KDPA 221852Z 30007KT 10SM OVC050 12/01 A3002 RMK AO2 SLP166 T01170011
cycle: 19

Station Type Date Time Source
KDPA TAF 2021/10/22 18:22 UTC NOAA

TAF KDPA 221720Z 2218/2318 32004KT P6SM SCT050 BKN100

Example: see airport list